createdAt,value
2022-08-16T00:01:24.443Z,1.35
2022-08-16T00:03:53.117Z,1.60
2022-08-16T00:06:21.421Z,1.50
2022-08-16T00:08:52.457Z,1.70
2022-08-16T00:11:20.987Z,1.20
2022-08-16T00:13:53.418Z,1.48
2022-08-16T00:17:06.638Z,1.52
2022-08-16T00:19:13.380Z,1.63
2022-08-16T00:21:42.586Z,1.80
2022-08-16T00:24:12.153Z,1.48
2022-08-16T00:26:45.070Z,1.50
2022-08-16T00:29:17.477Z,1.60
2022-08-16T00:31:59.786Z,1.85
2022-08-16T00:34:44.497Z,1.70
2022-08-16T00:37:20.389Z,1.70
2022-08-16T00:39:57.747Z,1.60
2022-08-16T00:42:30.422Z,1.73
2022-08-16T00:45:06.289Z,1.70
2022-08-16T00:47:37.952Z,1.80
2022-08-16T00:50:08.225Z,1.70
2022-08-16T00:52:46.011Z,1.80
2022-08-16T00:55:19.338Z,1.52
2022-08-16T00:57:59.639Z,1.67
2022-08-16T01:00:32.651Z,1.80
2022-08-16T01:03:04.975Z,1.83
2022-08-16T01:05:33.520Z,1.77
2022-08-16T01:08:02.550Z,1.60
2022-08-16T01:10:51.136Z,1.58
2022-08-16T01:13:22.720Z,1.52
2022-08-16T01:15:56.301Z,1.80
2022-08-16T01:18:39.998Z,1.70
2022-08-16T01:21:22.361Z,1.60
2022-08-16T01:24:52.091Z,1.80
2022-08-16T01:27:04.218Z,1.48
2022-08-16T01:29:57.932Z,1.60
2022-08-16T01:32:33.583Z,1.65
2022-08-16T01:35:05.328Z,1.60
2022-08-16T01:37:42.333Z,1.60
2022-08-16T01:40:13.762Z,1.88
2022-08-16T01:42:44.463Z,1.60
2022-08-16T01:45:19.723Z,1.80
2022-08-16T01:47:52.111Z,1.95
2022-08-16T01:51:05.048Z,1.70
2022-08-16T01:53:11.147Z,2.17
2022-08-16T01:55:42.818Z,2.10
2022-08-16T01:58:23.488Z,1.77
2022-08-16T02:00:51.369Z,2.00
2022-08-16T02:03:19.298Z,1.88
2022-08-16T02:05:52.504Z,1.80
2022-08-16T02:08:33.572Z,1.95
2022-08-16T02:11:04.750Z,1.98
2022-08-16T02:13:33.009Z,1.90
2022-08-16T02:16:01.191Z,1.80
2022-08-16T02:18:29.291Z,1.73
2022-08-16T02:20:57.160Z,2.33
2022-08-16T02:23:25.687Z,1.80
2022-08-16T02:25:59.507Z,2.17
2022-08-16T02:28:29.503Z,1.90
2022-08-16T02:31:00.450Z,1.80
2022-08-16T02:33:44.533Z,1.67
2022-08-16T02:36:47.914Z,1.80
2022-08-16T02:39:07.115Z,1.85
2022-08-16T02:41:39.468Z,1.70
2022-08-16T02:44:11.237Z,1.95
2022-08-16T02:46:50.756Z,1.75
2022-08-16T02:49:21.884Z,1.70
2022-08-16T02:52:00.038Z,1.60
2022-08-16T02:54:29.086Z,1.73
2022-08-16T02:56:56.935Z,2.17
2022-08-16T02:59:27.424Z,2.55
2022-08-16T03:02:10.281Z,2.60
2022-08-16T03:04:50.904Z,2.92
2022-08-16T03:07:27.727Z,2.15
2022-08-16T03:09:57.153Z,2.28
2022-08-16T03:12:30.353Z,2.45
2022-08-16T03:15:07.231Z,2.22
2022-08-16T03:17:36.598Z,2.40
2022-08-16T03:20:21.445Z,2.10
2022-08-16T03:23:01.848Z,2.38
2022-08-16T03:25:43.921Z,1.80
2022-08-16T03:28:12.669Z,2.13
2022-08-16T03:30:42.333Z,2.10
2022-08-16T03:33:10.183Z,1.90
2022-08-16T03:35:40.416Z,1.80
2022-08-16T03:38:34.359Z,2.17
2022-08-16T03:40:59.758Z,2.42
2022-08-16T03:43:51.543Z,2.25
2022-08-16T03:46:47.445Z,2.28
2022-08-16T03:49:11.762Z,2.40
2022-08-16T03:51:40.959Z,2.30
2022-08-16T03:54:12.330Z,2.28
2022-08-16T03:56:57.168Z,2.33
2022-08-16T03:59:25.964Z,2.30
2022-08-16T04:01:59.244Z,2.30
2022-08-16T04:04:33.391Z,2.03
2022-08-16T04:07:03.339Z,2.20
2022-08-16T04:09:35.172Z,2.35
2022-08-16T04:12:04.697Z,2.30
2022-08-16T04:14:46.605Z,2.35
2022-08-16T04:17:17.683Z,2.15
2022-08-16T04:19:46.630Z,2.20
2022-08-16T04:22:17.161Z,2.00
2022-08-16T04:24:54.854Z,1.83
2022-08-16T04:27:24.439Z,2.20
2022-08-16T04:30:03.281Z,2.30
2022-08-16T04:32:32.876Z,2.25
2022-08-16T04:35:07.597Z,2.20
2022-08-16T04:37:42.261Z,2.00
2022-08-16T04:40:20.579Z,2.03
2022-08-16T04:42:50.532Z,2.20
2022-08-16T04:45:19.584Z,2.10
2022-08-16T04:48:06.411Z,2.20
2022-08-16T04:50:34.262Z,1.98
2022-08-16T04:53:02.112Z,2.10
2022-08-16T04:55:38.403Z,2.40
2022-08-16T04:58:43.980Z,2.10
2022-08-16T05:00:55.812Z,2.17
2022-08-16T05:03:26.158Z,2.45
2022-08-16T05:05:59.184Z,2.22
2022-08-16T05:08:31.819Z,2.60
2022-08-16T05:11:05.219Z,2.85
2022-08-16T05:13:40.434Z,2.92
2022-08-16T05:16:11.885Z,3.08
2022-08-16T05:18:41.261Z,3.50
2022-08-16T05:21:11.279Z,3.28
2022-08-16T05:23:40.816Z,3.13
2022-08-16T05:26:20.114Z,2.67
2022-08-16T05:28:55.169Z,2.58
2022-08-16T05:31:24.168Z,3.10
2022-08-16T05:33:59.582Z,3.10
2022-08-16T05:36:34.347Z,2.60
2022-08-16T05:39:06.565Z,2.60
2022-08-16T05:41:45.201Z,2.53
2022-08-16T05:44:23.850Z,2.58
2022-08-16T05:46:54.668Z,2.30
2022-08-16T05:49:25.146Z,2.22
2022-08-16T05:51:55.062Z,2.60
2022-08-16T05:54:25.670Z,2.53
2022-08-16T05:56:55.803Z,2.40
2022-08-16T05:59:24.450Z,2.50
2022-08-16T06:01:55.771Z,2.35
2022-08-16T06:04:36.702Z,2.60
2022-08-16T06:07:09.097Z,2.45
2022-08-16T06:09:43.248Z,2.13
2022-08-16T06:12:27.004Z,2.20
2022-08-16T06:14:58.979Z,2.20
2022-08-16T06:17:42.465Z,2.30
2022-08-16T06:20:18.596Z,2.10
2022-08-16T06:22:58.812Z,2.33
2022-08-16T06:25:36.489Z,2.13
2022-08-16T06:28:10.269Z,1.98
2022-08-16T06:30:45.034Z,2.30
2022-08-16T06:33:22.674Z,2.30
2022-08-16T06:35:55.318Z,2.28
2022-08-16T06:38:33.351Z,2.22
2022-08-16T06:41:03.681Z,2.10
2022-08-16T06:43:31.968Z,2.17
2022-08-16T06:46:00.623Z,2.10
2022-08-16T06:48:32.686Z,1.98
2022-08-16T06:51:03.229Z,2.30
2022-08-16T06:53:35.707Z,2.20
2022-08-16T06:56:14.298Z,2.13
2022-08-16T06:58:51.005Z,2.13
2022-08-16T07:01:23.017Z,2.10
2022-08-16T07:04:11.785Z,1.90
2022-08-16T07:06:42.964Z,1.98
2022-08-16T07:09:11.894Z,1.90
2022-08-16T07:11:45.856Z,2.10
2022-08-16T07:14:24.165Z,2.13
2022-08-16T07:16:53.409Z,1.77
2022-08-16T07:19:21.226Z,2.03
2022-08-16T07:22:00.005Z,2.08
2022-08-16T07:24:30.122Z,1.98
2022-08-16T07:26:58.635Z,1.90
2022-08-16T07:29:26.449Z,1.90
2022-08-16T07:32:00.764Z,1.90
2022-08-16T07:34:35.418Z,2.10
2022-08-16T07:37:08.280Z,2.00
2022-08-16T07:39:43.313Z,1.75
2022-08-16T07:42:25.900Z,1.70
2022-08-16T07:44:57.935Z,1.92
2022-08-16T07:47:31.552Z,1.70
2022-08-16T07:49:59.845Z,1.95
2022-08-16T07:52:29.955Z,1.95
2022-08-16T07:54:58.009Z,1.90
2022-08-16T07:57:26.442Z,2.08
2022-08-16T07:59:57.170Z,2.17
2022-08-16T08:02:27.507Z,1.95
2022-08-16T08:04:56.277Z,1.73
2022-08-16T08:07:27.602Z,2.05
2022-08-16T08:09:58.169Z,2.20
2022-08-16T08:12:31.840Z,2.28
2022-08-16T08:15:05.867Z,2.30
2022-08-16T08:17:42.044Z,2.33
2022-08-16T08:20:26.184Z,2.13
2022-08-16T08:23:01.121Z,2.17
2022-08-16T08:25:53.887Z,2.03
2022-08-16T08:28:20.126Z,2.15
2022-08-16T08:30:51.543Z,2.17
2022-08-16T08:33:29.305Z,2.20
2022-08-16T08:36:00.782Z,2.40
2022-08-16T08:41:15.466Z,2.25
2022-08-16T08:43:50.401Z,2.40
2022-08-16T08:46:21.335Z,2.33
2022-08-16T08:48:58.382Z,2.70
2022-08-16T08:51:35.663Z,2.38
2022-08-16T08:54:06.532Z,2.55
2022-08-16T08:56:37.476Z,2.80
2022-08-16T08:59:19.908Z,2.35
2022-08-16T09:01:57.175Z,2.50
2022-08-16T09:04:27.185Z,2.20
2022-08-16T09:06:55.396Z,2.35
2022-08-16T09:09:23.611Z,2.60
2022-08-16T09:11:53.665Z,2.55
2022-08-16T09:14:32.813Z,2.70
2022-08-16T09:17:14.037Z,2.95
2022-08-16T09:19:53.732Z,2.70
2022-08-16T09:22:23.741Z,2.53
2022-08-16T09:24:54.071Z,2.60
2022-08-16T09:27:57.219Z,2.50
2022-08-16T09:30:34.749Z,2.70
2022-08-16T09:33:11.884Z,2.40
2022-08-16T09:35:42.428Z,2.67
2022-08-16T09:38:31.269Z,2.50
2022-08-16T09:41:01.374Z,2.65
2022-08-16T09:44:00.102Z,2.90
2022-08-16T09:46:44.560Z,2.92
2022-08-16T09:49:08.467Z,2.88
2022-08-16T09:51:37.516Z,2.78
2022-08-16T09:54:09.835Z,2.70
2022-08-16T09:56:52.756Z,2.55
2022-08-16T09:59:25.270Z,2.50
2022-08-16T10:01:54.480Z,2.70
2022-08-16T10:04:31.698Z,2.45
2022-08-16T10:07:14.668Z,2.75
2022-08-16T10:09:53.981Z,2.72
2022-08-16T10:12:42.634Z,2.35
2022-08-16T10:15:15.351Z,2.40
2022-08-16T10:17:45.487Z,2.97
2022-08-16T10:20:28.931Z,2.47
2022-08-16T10:23:03.670Z,2.95
2022-08-16T10:27:20.843Z,2.47
2022-08-16T10:28:31.856Z,3.10
2022-08-16T10:31:03.344Z,2.47
2022-08-16T10:33:34.015Z,2.33
2022-08-16T10:36:04.882Z,2.40
2022-08-16T10:38:36.826Z,3.08
2022-08-16T10:41:07.083Z,2.70
2022-08-16T10:43:36.197Z,2.25
2022-08-16T10:46:39.396Z,2.80
2022-08-16T10:48:54.940Z,2.47
2022-08-16T10:51:33.650Z,2.67
2022-08-16T10:54:28.648Z,2.78
2022-08-16T10:56:58.308Z,2.60
2022-08-16T10:59:38.480Z,2.60
2022-08-16T11:03:37.433Z,2.58
2022-08-16T11:05:06.344Z,2.80
2022-08-16T11:07:43.802Z,2.60
2022-08-16T11:10:57.071Z,2.50
2022-08-16T11:15:57.583Z,2.83
2022-08-16T11:18:48.595Z,2.90
2022-08-16T11:21:29.533Z,2.65
2022-08-16T11:23:59.070Z,2.63
2022-08-16T11:26:28.646Z,2.75
2022-08-16T11:29:14.014Z,2.70
2022-08-16T11:31:45.859Z,2.90
2022-08-16T11:34:23.116Z,2.78
2022-08-16T11:36:59.377Z,2.75
2022-08-16T11:39:29.521Z,2.60
2022-08-16T11:41:57.773Z,3.00
2022-08-16T11:44:45.368Z,2.58
2022-08-16T11:47:14.112Z,3.10
2022-08-16T11:49:43.410Z,2.42
2022-08-16T11:52:11.273Z,2.78
2022-08-16T11:54:40.213Z,2.70
2022-08-16T11:57:08.953Z,2.60
2022-08-16T11:59:39.566Z,2.92
2022-08-16T12:02:32.143Z,3.00
2022-08-16T12:04:59.336Z,2.38
2022-08-16T12:07:29.231Z,2.97
2022-08-16T12:10:01.231Z,3.00
2022-08-16T12:12:29.210Z,2.90
2022-08-16T12:15:01.036Z,2.80
2022-08-16T12:17:31.954Z,2.67
2022-08-16T12:20:01.880Z,3.00
2022-08-16T12:22:36.564Z,2.90
2022-08-16T12:25:05.457Z,2.70
2022-08-16T12:27:33.532Z,3.10
2022-08-16T12:30:08.405Z,2.70
2022-08-16T12:32:53.282Z,3.05
2022-08-16T12:35:29.577Z,3.28
2022-08-16T12:37:59.433Z,2.92
2022-08-16T12:40:32.210Z,2.58
2022-08-16T12:43:03.267Z,3.08
2022-08-16T12:45:35.670Z,2.65
2022-08-16T12:48:33.930Z,2.95
2022-08-16T12:51:13.522Z,2.60
2022-08-16T12:53:47.392Z,2.90
2022-08-16T12:56:15.285Z,2.97
2022-08-16T12:58:49.468Z,2.92
2022-08-16T13:01:22.765Z,2.80
2022-08-16T13:04:08.247Z,2.60
2022-08-16T13:06:42.217Z,3.10
2022-08-16T13:09:20.564Z,2.88
2022-08-16T13:11:59.955Z,2.92
2022-08-16T13:14:33.523Z,2.58
2022-08-16T13:17:03.976Z,3.03
2022-08-16T13:20:03.397Z,2.90
2022-08-16T13:22:25.005Z,2.83
2022-08-16T13:24:54.399Z,3.17
2022-08-16T13:28:02.461Z,3.13
2022-08-16T13:30:35.602Z,3.13
2022-08-16T13:33:00.563Z,3.00
2022-08-16T13:35:34.394Z,2.67
2022-08-16T13:38:04.034Z,2.80
2022-08-16T13:40:34.345Z,2.88
2022-08-16T13:43:02.856Z,3.00
2022-08-16T13:45:45.184Z,3.08
2022-08-16T13:48:21.954Z,2.97
2022-08-16T13:50:53.839Z,3.10
2022-08-16T13:53:24.169Z,2.95
2022-08-16T13:55:57.617Z,3.03
2022-08-16T13:58:37.416Z,2.90
2022-08-16T14:01:16.249Z,3.08
2022-08-16T14:03:45.416Z,3.22
2022-08-16T14:06:14.862Z,3.10
2022-08-16T14:08:44.687Z,2.88
2022-08-16T14:11:27.722Z,2.65
2022-08-16T14:13:57.380Z,2.80
2022-08-16T14:16:33.765Z,2.70
2022-08-16T14:19:02.662Z,2.40
2022-08-16T14:21:34.805Z,2.45
2022-08-16T14:24:22.130Z,2.63
2022-08-16T14:26:50.741Z,2.80
2022-08-16T14:29:21.277Z,2.60
2022-08-16T14:31:53.887Z,2.42
2022-08-16T14:34:25.650Z,2.67
2022-08-16T14:36:53.970Z,2.70
2022-08-16T14:39:23.319Z,2.70
2022-08-16T14:41:53.780Z,2.33
2022-08-16T14:44:24.291Z,2.28
2022-08-16T14:46:54.183Z,2.65
2022-08-16T14:49:23.887Z,2.53
2022-08-16T14:51:52.121Z,2.72
2022-08-16T14:54:21.803Z,2.40
2022-08-16T14:56:54.954Z,2.53
2022-08-16T14:59:23.546Z,2.50
2022-08-16T15:01:58.740Z,2.13
2022-08-16T15:04:36.891Z,3.05
2022-08-16T15:07:10.916Z,2.65
2022-08-16T15:09:44.105Z,2.40
2022-08-16T15:12:30.925Z,2.40
2022-08-16T15:15:04.425Z,2.10
2022-08-16T15:17:40.511Z,2.60
2022-08-16T15:20:09.814Z,2.40
2022-08-16T15:22:40.397Z,2.33
2022-08-16T15:25:11.209Z,2.33
2022-08-16T15:33:03.158Z,1.92
2022-08-16T15:35:33.382Z,2.40
2022-08-16T15:38:09.080Z,2.40
2022-08-16T15:40:57.648Z,2.58
2022-08-16T15:43:39.549Z,2.60
2022-08-16T15:46:55.836Z,2.20
2022-08-16T15:49:12.437Z,2.88
2022-08-16T15:51:41.193Z,3.05
2022-08-16T15:54:21.473Z,2.53
2022-08-16T15:57:04.337Z,2.40
2022-08-16T15:59:48.656Z,2.72
2022-08-16T16:02:27.526Z,2.72
2022-08-16T16:04:56.093Z,2.60
2022-08-16T16:07:23.940Z,2.72
2022-08-16T16:09:53.334Z,2.58
2022-08-16T16:12:51.655Z,3.00
2022-08-16T16:15:11.864Z,2.60
2022-08-16T16:17:39.700Z,2.50
2022-08-16T16:20:14.633Z,2.55
2022-08-16T16:22:43.552Z,3.17
2022-08-16T16:25:11.687Z,2.72
2022-08-16T16:27:40.740Z,2.75
2022-08-16T16:30:38.141Z,2.47
2022-08-16T16:32:59.854Z,2.72
2022-08-16T16:35:30.813Z,2.50
2022-08-16T16:38:00.939Z,3.35
2022-08-16T16:40:32.605Z,2.90
2022-08-16T16:43:01.668Z,2.70
2022-08-16T16:45:33.323Z,2.75
2022-08-16T16:48:12.005Z,2.80
2022-08-16T16:50:44.562Z,2.45
2022-08-16T16:53:17.250Z,2.97
2022-08-16T16:55:47.750Z,2.80
2022-08-16T16:58:38.104Z,2.78
2022-08-16T17:01:07.787Z,2.92
2022-08-16T17:03:38.579Z,2.90
2022-08-16T17:06:09.109Z,2.95
2022-08-16T17:08:40.832Z,2.90
2022-08-16T17:11:09.561Z,2.97
2022-08-16T17:13:38.091Z,2.70
2022-08-16T17:16:08.595Z,3.00
2022-08-16T17:19:15.078Z,2.95
2022-08-16T17:21:36.945Z,3.20
2022-08-16T17:24:18.406Z,2.70
2022-08-16T17:26:49.052Z,2.67
2022-08-16T17:29:17.030Z,3.00
2022-08-16T17:31:50.321Z,3.05
2022-08-16T17:34:30.259Z,2.72
2022-08-16T17:37:00.592Z,2.77
2022-08-16T17:39:33.158Z,2.65
2022-08-16T17:42:02.458Z,2.78
2022-08-16T17:44:30.328Z,2.90
2022-08-16T17:46:59.475Z,3.33
2022-08-16T17:49:27.310Z,3.08
2022-08-16T17:51:55.125Z,3.08
2022-08-16T17:54:30.023Z,3.00
2022-08-16T17:57:00.488Z,2.95
2022-08-16T17:59:29.836Z,3.20
2022-08-16T18:01:59.169Z,2.90
2022-08-16T18:04:48.880Z,3.08
2022-08-16T18:07:15.506Z,3.67
2022-08-16T18:09:43.372Z,3.10
2022-08-16T18:12:44.205Z,3.00
2022-08-16T18:15:08.116Z,2.90
2022-08-16T18:17:37.843Z,5.53
2022-08-16T18:20:06.889Z,5.43
2022-08-16T18:22:34.843Z,4.55
2022-08-16T18:25:02.742Z,4.43
2022-08-16T18:27:32.615Z,3.95
2022-08-16T18:30:00.736Z,3.67
2022-08-16T18:32:28.577Z,3.85
2022-08-16T18:34:58.245Z,3.97
2022-08-16T18:37:26.044Z,3.60
2022-08-16T18:39:54.022Z,3.90
2022-08-16T18:42:24.444Z,4.07
2022-08-16T18:44:52.267Z,4.25
2022-08-16T18:47:20.141Z,3.70
2022-08-16T18:49:47.950Z,3.60
2022-08-16T18:52:25.010Z,3.53
2022-08-16T18:55:03.056Z,3.65
2022-08-16T18:57:41.417Z,4.00
2022-08-16T19:00:12.369Z,3.45
2022-08-16T19:02:56.098Z,4.57
2022-08-16T19:05:29.126Z,4.10
2022-08-16T19:07:58.575Z,3.90
2022-08-16T19:10:26.539Z,3.40
2022-08-16T19:12:54.512Z,3.13
2022-08-16T19:15:26.134Z,3.38
2022-08-16T19:17:54.378Z,3.30
2022-08-16T19:20:25.133Z,3.70
2022-08-16T19:23:10.099Z,3.65
2022-08-16T19:25:46.756Z,3.22
2022-08-16T19:28:46.628Z,3.45
2022-08-16T19:31:06.211Z,3.38
2022-08-16T19:33:34.130Z,3.60
2022-08-16T19:36:02.048Z,3.53
2022-08-16T19:38:30.202Z,3.78
2022-08-16T19:40:59.338Z,3.20
2022-08-16T19:43:27.128Z,3.45
2022-08-16T19:45:55.226Z,3.55
2022-08-16T19:48:23.440Z,3.65
2022-08-16T19:50:51.243Z,3.60
2022-08-16T19:53:19.638Z,3.58
2022-08-16T19:55:48.441Z,3.72
2022-08-16T19:58:17.865Z,3.83
2022-08-16T20:00:47.952Z,3.80
2022-08-16T20:03:22.347Z,3.42
2022-08-16T20:05:51.776Z,3.83
2022-08-16T20:08:20.026Z,4.25
2022-08-16T20:10:50.470Z,3.83
2022-08-16T20:13:22.657Z,4.07
2022-08-16T20:15:51.776Z,4.10
2022-08-16T20:18:24.444Z,4.03
2022-08-16T20:20:53.317Z,3.67
2022-08-16T20:23:24.904Z,3.72
2022-08-16T20:28:39.429Z,3.92
2022-08-16T20:31:12.964Z,4.00
2022-08-16T20:33:41.072Z,3.95
2022-08-16T20:36:09.499Z,3.92
2022-08-16T20:38:46.689Z,3.97
2022-08-16T20:41:14.721Z,3.47
2022-08-16T20:43:44.085Z,3.60
2022-08-16T20:46:13.605Z,3.60
2022-08-16T20:48:41.421Z,4.30
2022-08-16T20:51:10.646Z,4.18
2022-08-16T20:53:38.818Z,4.50
2022-08-16T20:56:07.606Z,3.67
2022-08-16T20:58:35.462Z,4.05
2022-08-16T21:01:05.900Z,4.45
2022-08-16T21:03:33.905Z,4.15
2022-08-16T21:06:02.925Z,3.97
2022-08-16T21:08:53.109Z,4.07
2022-08-16T21:11:21.488Z,4.00
2022-08-16T21:13:49.383Z,4.18
2022-08-16T21:16:19.450Z,3.90
2022-08-16T21:18:47.384Z,4.18
2022-08-16T21:21:15.480Z,4.50
2022-08-16T21:23:43.377Z,4.25
2022-08-16T21:26:11.585Z,4.57
2022-08-16T21:28:43.346Z,4.45
2022-08-16T21:31:12.552Z,4.40
2022-08-16T21:33:42.518Z,3.97
2022-08-16T21:36:11.216Z,4.13
2022-08-16T21:38:39.111Z,4.40
2022-08-16T21:41:10.143Z,4.10
2022-08-16T21:43:38.185Z,4.13
2022-08-16T21:46:07.986Z,4.57
2022-08-16T21:48:40.683Z,3.90
2022-08-16T21:51:12.679Z,4.20
2022-08-16T21:53:41.803Z,4.68
2022-08-16T21:56:12.633Z,4.45
2022-08-16T21:58:44.793Z,4.47
2022-08-16T22:01:12.639Z,4.28
2022-08-16T22:03:40.548Z,4.80
2022-08-16T22:06:14.218Z,5.60
2022-08-16T22:08:50.376Z,5.20
2022-08-16T22:11:20.163Z,5.10
2022-08-16T22:13:57.953Z,4.95
2022-08-16T22:16:27.716Z,4.80
2022-08-16T22:18:55.574Z,4.93
2022-08-16T22:21:24.848Z,5.10
2022-08-16T22:23:57.798Z,5.38
2022-08-16T22:26:30.642Z,5.10
2022-08-16T22:29:00.695Z,5.00
2022-08-16T22:31:29.085Z,5.35
2022-08-16T22:33:57.242Z,5.18
2022-08-16T22:36:28.255Z,4.57
2022-08-16T22:38:58.301Z,5.03
2022-08-16T22:41:27.513Z,5.50
2022-08-16T22:43:55.554Z,5.07
2022-08-16T22:46:23.446Z,5.18
2022-08-16T22:48:51.663Z,4.72
2022-08-16T22:51:19.932Z,5.03
2022-08-16T22:53:49.239Z,5.22
2022-08-16T22:56:17.880Z,4.80
2022-08-16T22:58:45.746Z,4.72
2022-08-16T23:01:14.286Z,4.68
2022-08-16T23:03:42.732Z,4.85
2022-08-16T23:06:12.248Z,4.68
2022-08-16T23:08:41.748Z,4.75
2022-08-16T23:11:13.902Z,4.95
2022-08-16T23:13:50.110Z,4.78
2022-08-16T23:16:29.198Z,4.85
2022-08-16T23:19:02.506Z,4.50
2022-08-16T23:21:30.363Z,5.05
2022-08-16T23:23:58.324Z,5.43
2022-08-16T23:26:45.090Z,4.55
2022-08-16T23:29:24.912Z,4.60
2022-08-16T23:32:09.176Z,4.38
2022-08-16T23:34:37.064Z,4.25
2022-08-16T23:37:06.484Z,4.47
2022-08-16T23:39:35.794Z,4.53
2022-08-16T23:42:12.556Z,4.20
2022-08-16T23:44:56.254Z,4.43
2022-08-16T23:47:26.615Z,4.57
2022-08-16T23:50:02.667Z,4.97
2022-08-16T23:52:53.709Z,4.60
2022-08-16T23:55:19.703Z,4.68
2022-08-16T23:57:49.569Z,4.43
